Time;durP1;ratioP1;P1;durP2;ratioP2;P2;SDS_P1;SDS_P2;PMS_P1;PMS_P2;Temp;Humidity;BMP_temperature;BMP_pressure;BME280_temperature;BME280_humidity;BME280_pressure;Samples;Min_cycle;Max_cycle;Signal;HPM_P1;HPM_P2
2023/06/29 00:01:30;;;;;;;3.13;2.83;;;15.90;99.90;;;;;;5062006;28;20215;-77
2023/06/29 00:03:57;;;;;;;4.50;3.50;;;15.90;99.90;;;;;;5053159;28;20249;-77
2023/06/29 00:06:25;;;;;;;3.53;3.23;;;15.90;99.90;;;;;;5059799;28;20205;-77
2023/06/29 00:08:52;;;;;;;3.33;3.03;;;15.90;99.90;;;;;;5071930;28;20667;-77
2023/06/29 00:11:19;;;;;;;4.23;3.27;;;15.90;99.90;;;;;;5063992;28;20512;-77
2023/06/29 00:13:46;;;;;;;4.60;3.90;;;15.80;99.90;;;;;;5066086;28;20201;-77
2023/06/29 00:16:13;;;;;;;5.30;4.80;;;15.70;99.90;;;;;;5060990;28;20198;-77
2023/06/29 00:18:39;;;;;;;5.30;4.90;;;15.70;99.90;;;;;;5055346;28;20678;-76
2023/06/29 00:21:06;;;;;;;3.97;3.43;;;15.70;99.90;;;;;;5064890;28;20742;-76
2023/06/29 00:23:34;;;;;;;4.80;3.93;;;15.70;99.90;;;;;;5064044;28;20697;-77
2023/06/29 00:26:02;;;;;;;4.23;3.67;;;15.70;99.90;;;;;;5070363;28;20211;-77
2023/06/29 00:28:28;;;;;;;5.17;3.60;;;15.70;99.90;;;;;;5067326;28;20229;-76
2023/06/29 00:30:56;;;;;;;5.07;3.50;;;15.70;99.90;;;;;;5067088;28;20214;-78
2023/06/29 00:33:22;;;;;;;3.77;3.20;;;15.60;99.90;;;;;;5068597;28;20676;-76
2023/06/29 00:35:49;;;;;;;3.63;3.33;;;15.60;99.90;;;;;;5069148;28;20636;-77
2023/06/29 00:38:16;;;;;;;6.30;3.60;;;15.50;99.90;;;;;;5067684;28;20198;-77
2023/06/29 00:40:44;;;;;;;4.13;3.50;;;15.40;99.90;;;;;;5064146;28;20204;-77
2023/06/29 00:43:11;;;;;;;4.33;3.93;;;15.40;99.90;;;;;;5065436;28;20712;-79
2023/06/29 00:45:38;;;;;;;5.53;3.83;;;15.40;99.90;;;;;;5044503;28;20198;-78
2023/06/29 00:48:05;;;;;;;5.20;4.00;;;15.40;99.90;;;;;;5052266;28;20271;-77
2023/06/29 00:50:35;;;;;;;5.80;4.87;;;15.40;99.90;;;;;;5056733;28;20305;-76
2023/06/29 00:53:02;;;;;;;6.33;4.10;;;15.30;99.90;;;;;;5072693;28;20297;-77
2023/06/29 00:55:29;;;;;;;4.53;3.93;;;15.30;99.90;;;;;;5071818;28;20624;-77
2023/06/29 00:57:57;;;;;;;5.03;3.63;;;15.30;99.90;;;;;;5070296;28;20210;-78
2023/06/29 01:00:24;;;;;;;5.53;3.87;;;15.30;99.90;;;;;;5067979;28;20849;-77
2023/06/29 01:02:51;;;;;;;5.37;3.60;;;15.30;99.90;;;;;;5071269;28;20565;-76
2023/06/29 01:05:18;;;;;;;5.40;3.57;;;15.30;99.90;;;;;;5065960;28;20693;-77
2023/06/29 01:07:52;;;;;;;7.63;3.87;;;15.30;99.90;;;;;;5059789;28;20202;-77
2023/06/29 01:10:24;;;;;;;4.30;3.60;;;15.30;99.90;;;;;;5067158;28;20221;-76
2023/06/29 01:12:52;;;;;;;4.07;3.43;;;15.20;99.90;;;;;;5066034;28;20222;-77
2023/06/29 01:15:22;;;;;;;5.20;3.73;;;15.20;99.90;;;;;;5062864;28;20247;-76
2023/06/29 01:17:52;;;;;;;4.53;3.63;;;15.10;99.90;;;;;;5072063;28;20209;-77
2023/06/29 01:20:25;;;;;;;4.73;4.03;;;15.10;99.90;;;;;;5065757;28;20199;-77
2023/06/29 01:22:56;;;;;;;3.80;3.33;;;15.10;99.90;;;;;;5067230;28;20605;-77
2023/06/29 01:25:25;;;;;;;6.10;4.20;;;15.00;99.90;;;;;;5072166;28;20218;-76
2023/06/29 01:27:52;;;;;;;5.10;3.97;;;15.00;99.90;;;;;;5067532;28;20195;-77
2023/06/29 01:30:23;;;;;;;4.97;4.40;;;15.00;99.90;;;;;;5059191;28;20187;-77
2023/06/29 01:32:50;;;;;;;6.00;5.40;;;15.00;99.90;;;;;;5063124;28;20223;-76
2023/06/29 01:35:17;;;;;;;6.20;5.67;;;15.00;99.90;;;;;;5067426;28;20246;-77
2023/06/29 01:37:50;;;;;;;6.83;5.97;;;15.00;99.90;;;;;;5063914;28;20199;-77
2023/06/29 01:40:21;;;;;;;6.87;6.17;;;14.90;99.90;;;;;;5051812;28;20202;-76
2023/06/29 01:42:50;;;;;;;6.10;5.60;;;14.90;99.90;;;;;;5048813;28;20576;-77
2023/06/29 01:45:20;;;;;;;6.30;5.70;;;14.80;99.90;;;;;;5054063;28;20223;-76
2023/06/29 01:47:46;;;;;;;6.10;5.60;;;14.80;99.90;;;;;;5049848;28;20642;-77
2023/06/29 01:50:14;;;;;;;6.83;6.20;;;14.70;99.90;;;;;;5071683;28;20663;-76
2023/06/29 01:52:41;;;;;;;6.23;5.73;;;14.70;99.90;;;;;;5061471;28;20232;-77
2023/06/29 01:55:10;;;;;;;7.37;6.57;;;14.80;99.90;;;;;;5064923;28;20197;-77
2023/06/29 01:57:37;;;;;;;7.30;6.10;;;14.70;99.90;;;;;;5062910;28;20204;-77
2023/06/29 02:00:06;;;;;;;7.23;6.63;;;14.70;99.90;;;;;;5040532;28;20571;-77
2023/06/29 02:02:40;;;;;;;7.30;6.33;;;14.60;99.90;;;;;;5061435;28;20794;-76
2023/06/29 02:05:08;;;;;;;8.07;7.27;;;14.60;99.90;;;;;;5070277;28;20294;-77
2023/06/29 02:07:35;;;;;;;7.80;7.00;;;14.60;99.90;;;;;;5057456;28;20297;-76
2023/06/29 02:10:02;;;;;;;6.83;6.23;;;14.60;99.90;;;;;;5072847;28;20649;-76
2023/06/29 02:12:28;;;;;;;7.50;6.77;;;14.60;99.90;;;;;;5063033;28;20212;-76
2023/06/29 02:14:55;;;;;;;6.83;6.33;;;14.50;99.90;;;;;;5059182;28;20197;-76
2023/06/29 02:17:23;;;;;;;6.73;6.13;;;14.50;99.90;;;;;;5071222;28;20207;-76
2023/06/29 02:19:50;;;;;;;7.10;6.50;;;14.50;99.90;;;;;;5066877;28;20550;-76
2023/06/29 02:22:17;;;;;;;7.13;6.53;;;14.50;99.90;;;;;;5069232;28;20305;-77
2023/06/29 02:24:44;;;;;;;7.33;6.67;;;14.50;99.90;;;;;;5064789;28;20226;-76
2023/06/29 02:27:10;;;;;;;7.47;6.73;;;14.40;99.90;;;;;;5071446;28;20207;-77
2023/06/29 02:29:37;;;;;;;8.10;7.33;;;14.40;99.90;;;;;;5067164;28;20220;-76
2023/06/29 02:32:05;;;;;;;7.93;7.23;;;14.40;99.90;;;;;;5074926;28;20272;-77
2023/06/29 02:34:33;;;;;;;7.40;6.80;;;14.40;99.90;;;;;;5070824;28;20709;-76
2023/06/29 02:37:01;;;;;;;7.40;6.80;;;14.30;99.90;;;;;;5064704;28;20200;-76
2023/06/29 02:39:27;;;;;;;7.23;6.63;;;14.30;99.90;;;;;;5056100;28;20270;-76
2023/06/29 02:41:54;;;;;;;6.67;6.07;;;14.30;99.90;;;;;;5064583;28;20223;-77
2023/06/29 02:44:21;;;;;;;6.60;3.97;;;14.30;99.90;;;;;;5064011;28;20645;-77
2023/06/29 02:46:48;;;;;;;4.83;3.87;;;14.40;99.90;;;;;;5065065;28;20726;-76
2023/06/29 02:49:15;;;;;;;5.20;4.00;;;14.30;99.90;;;;;;5066313;28;20207;-76
2023/06/29 02:51:43;;;;;;;5.57;4.30;;;14.30;99.90;;;;;;5061387;28;20675;-75
2023/06/29 02:54:14;;;;;;;4.73;4.00;;;14.20;99.90;;;;;;5043880;28;20192;-77
2023/06/29 02:56:41;;;;;;;6.07;4.10;;;14.20;99.90;;;;;;5047281;28;20206;-76
2023/06/29 02:59:08;;;;;;;4.37;3.73;;;14.10;99.90;;;;;;5039395;28;20672;-77
2023/06/29 03:01:34;;;;;;;5.03;3.70;;;14.10;99.90;;;;;;5044939;28;20211;-78
2023/06/29 03:04:01;;;;;;;4.83;3.73;;;14.10;99.90;;;;;;5065214;28;20719;-77
2023/06/29 03:06:28;;;;;;;4.60;4.20;;;14.10;99.90;;;;;;5046873;28;20205;-76
2023/06/29 03:08:59;;;;;;;3.80;3.40;;;14.10;99.90;;;;;;5064683;28;20206;-78
2023/06/29 03:11:25;;;;;;;5.57;4.20;;;14.10;99.90;;;;;;5051996;28;20275;-79
2023/06/29 03:13:55;;;;;;;5.73;3.97;;;14.10;99.90;;;;;;5044598;28;20224;-76
2023/06/29 03:16:22;;;;;;;4.60;4.20;;;14.10;99.90;;;;;;5044060;28;20212;-76
2023/06/29 03:18:49;;;;;;;4.20;3.80;;;14.10;99.90;;;;;;5055023;28;20663;-77
2023/06/29 03:21:18;;;;;;;4.00;3.60;;;14.00;99.90;;;;;;5071771;28;20191;-79
2023/06/29 03:23:45;;;;;;;4.53;3.80;;;14.00;99.90;;;;;;5069760;28;20198;-77
2023/06/29 03:26:13;;;;;;;5.80;5.30;;;14.00;99.90;;;;;;5045671;28;20191;-77
2023/06/29 03:28:40;;;;;;;5.27;4.77;;;14.00;99.90;;;;;;5063099;28;20226;-78
2023/06/29 03:31:06;;;;;;;7.40;6.70;;;14.00;99.90;;;;;;5061928;28;20199;-77
2023/06/29 03:33:33;;;;;;;7.00;6.50;;;13.90;99.90;;;;;;5070724;28;20195;-78
2023/06/29 03:36:00;;;;;;;6.03;4.40;;;13.90;99.90;;;;;;5066776;28;20195;-78
2023/06/29 03:38:27;;;;;;;6.23;4.43;;;13.90;99.90;;;;;;5055171;28;20654;-79
2023/06/29 03:40:54;;;;;;;4.40;4.00;;;13.90;99.90;;;;;;5069993;28;20670;-76
2023/06/29 03:43:22;;;;;;;4.67;3.77;;;13.90;99.90;;;;;;5052726;28;20254;-77
2023/06/29 03:45:48;;;;;;;4.70;3.97;;;13.90;99.90;;;;;;5059507;28;20215;-77
2023/06/29 03:48:15;;;;;;;5.07;3.90;;;13.90;99.90;;;;;;5066140;28;20200;-77
2023/06/29 03:50:42;;;;;;;4.57;3.50;;;13.90;99.90;;;;;;5063835;28;20765;-77
2023/06/29 03:53:09;;;;;;;3.90;3.50;;;14.00;99.90;;;;;;5069187;28;20224;-77
2023/06/29 03:55:36;;;;;;;4.20;3.73;;;14.00;99.90;;;;;;5064469;28;20222;-75
2023/06/29 03:58:02;;;;;;;4.27;3.87;;;14.00;99.90;;;;;;5066811;28;20207;-77
2023/06/29 04:00:30;;;;;;;4.13;3.73;;;14.10;99.90;;;;;;5064279;28;20205;-76
2023/06/29 04:02:57;;;;;;;3.97;3.57;;;14.10;99.90;;;;;;5058381;28;20226;-76
2023/06/29 04:05:27;;;;;;;5.50;3.70;;;14.20;99.90;;;;;;5066829;28;20592;-77
2023/06/29 04:07:53;;;;;;;4.37;3.83;;;14.30;99.90;;;;;;5063301;28;20264;-76
2023/06/29 04:10:20;;;;;;;5.00;4.57;;;14.40;99.90;;;;;;5062450;28;20188;-77
2023/06/29 04:12:47;;;;;;;6.60;6.10;;;14.50;99.90;;;;;;5059639;28;20220;-77
2023/06/29 04:15:14;;;;;;;6.70;6.20;;;14.60;99.90;;;;;;5066992;28;20193;-76
2023/06/29 04:17:42;;;;;;;5.47;5.07;;;14.70;99.90;;;;;;5059525;28;20205;-77
2023/06/29 04:20:10;;;;;;;5.30;4.80;;;14.80;99.90;;;;;;5073190;28;20549;-76
2023/06/29 04:22:37;;;;;;;4.10;3.70;;;14.80;99.90;;;;;;5069643;28;20220;-77
2023/06/29 04:25:04;;;;;;;4.17;3.77;;;14.90;99.90;;;;;;5054602;28;20656;-77
2023/06/29 04:27:33;;;;;;;7.07;6.33;;;15.00;99.90;;;;;;5061869;28;20229;-77
2023/06/29 04:29:59;;;;;;;7.40;6.70;;;15.10;99.90;;;;;;5073708;28;20265;-77
2023/06/29 04:32:26;;;;;;;6.40;5.80;;;15.20;99.90;;;;;;5068836;28;20245;-77
2023/06/29 04:34:54;;;;;;;7.20;6.50;;;15.30;99.90;;;;;;5069412;28;20196;-77
2023/06/29 04:37:21;;;;;;;6.60;6.00;;;15.30;99.90;;;;;;5073855;28;20197;-77
2023/06/29 04:39:48;;;;;;;7.03;6.53;;;15.50;99.90;;;;;;5073776;28;20635;-77
2023/06/29 04:42:16;;;;;;;3.30;3.00;;;15.60;99.90;;;;;;5070273;28;20287;-77
2023/06/29 04:44:44;;;;;;;5.13;4.73;;;15.90;99.90;;;;;;5069352;28;20225;-77
2023/06/29 04:47:12;;;;;;;3.60;3.30;;;16.00;99.90;;;;;;5072929;28;20584;-76
2023/06/29 04:49:40;;;;;;;5.73;5.33;;;16.20;99.90;;;;;;5069971;28;20251;-76
2023/06/29 04:52:10;;;;;;;3.50;3.20;;;16.40;99.90;;;;;;5071082;28;20242;-77
2023/06/29 04:54:37;;;;;;;6.67;5.57;;;16.60;99.90;;;;;;5068692;28;20206;-76
2023/06/29 04:57:04;;;;;;;4.80;3.50;;;17.00;99.90;;;;;;5072701;28;20205;-77
2023/06/29 04:59:31;;;;;;;8.03;7.37;;;17.30;99.90;;;;;;5066457;28;20210;-78
2023/06/29 05:01:58;;;;;;;4.50;3.63;;;17.50;99.90;;;;;;5062248;28;20259;-77
2023/06/29 05:04:25;;;;;;;4.10;3.60;;;17.60;99.90;;;;;;5071316;28;20583;-77
2023/06/29 05:06:51;;;;;;;3.80;3.33;;;17.70;99.90;;;;;;5069088;28;20203;-77
2023/06/29 05:09:20;;;;;;;5.40;5.00;;;17.70;99.90;;;;;;5066843;28;20191;-78
2023/06/29 05:11:47;;;;;;;4.40;3.57;;;17.80;99.90;;;;;;5064886;28;20307;-78
2023/06/29 05:14:13;;;;;;;5.47;5.07;;;17.90;99.90;;;;;;5071342;28;20211;-77
2023/06/29 05:16:40;;;;;;;3.60;3.30;;;18.00;99.90;;;;;;5059976;28;20619;-77
2023/06/29 05:19:07;;;;;;;3.67;3.10;;;18.10;99.90;;;;;;5067314;28;20199;-77
2023/06/29 05:21:34;;;;;;;6.03;4.57;;;18.30;99.90;;;;;;5067369;28;20223;-77
2023/06/29 05:24:00;;;;;;;3.13;2.63;;;18.50;99.90;;;;;;5061219;28;20211;-77
2023/06/29 05:26:28;;;;;;;5.57;5.07;;;18.70;99.90;;;;;;5068278;28;20233;-77
2023/06/29 05:28:57;;;;;;;4.73;4.30;;;18.80;99.90;;;;;;5066704;28;20201;-77
2023/06/29 05:31:24;;;;;;;3.97;3.47;;;18.80;99.90;;;;;;5069820;28;20785;-78
2023/06/29 05:33:51;;;;;;;6.17;5.57;;;18.80;99.90;;;;;;5069384;28;20198;-78
2023/06/29 05:36:17;;;;;;;5.50;3.23;;;19.00;99.90;;;;;;5061845;28;20190;-78
2023/06/29 05:38:44;;;;;;;5.77;5.20;;;19.10;99.90;;;;;;5055608;28;20277;-78
2023/06/29 05:41:11;;;;;;;5.73;4.83;;;19.30;99.90;;;;;;5050053;28;20199;-78
2023/06/29 05:43:39;;;;;;;5.17;4.23;;;19.60;99.90;;;;;;5054004;28;20200;-78
2023/06/29 05:46:06;;;;;;;6.70;6.07;;;19.90;99.90;;;;;;5048777;28;20712;-78
2023/06/29 05:48:33;;;;;;;7.03;6.43;;;20.50;99.90;;;;;;5051694;28;20639;-78
2023/06/29 05:50:59;;;;;;;6.73;6.13;;;21.20;99.90;;;;;;5067808;28;20200;-78
2023/06/29 05:53:26;;;;;;;8.03;6.00;;;21.80;99.90;;;;;;5069377;28;20232;-78
2023/06/29 05:55:53;;;;;;;5.23;4.73;;;22.30;99.90;;;;;;5066887;28;20214;-78
2023/06/29 05:58:20;;;;;;;5.47;4.97;;;22.70;99.90;;;;;;5068966;28;20214;-78
2023/06/29 06:00:48;;;;;;;5.60;4.93;;;23.10;99.90;;;;;;5060002;28;20202;-79
2023/06/29 06:03:15;;;;;;;6.17;5.10;;;23.30;99.90;;;;;;5067277;28;20226;-78
2023/06/29 06:05:42;;;;;;;5.13;3.40;;;23.60;99.90;;;;;;5069328;28;20700;-78
2023/06/29 06:08:08;;;;;;;4.60;4.20;;;23.90;99.90;;;;;;5065261;28;20195;-78
2023/06/29 06:10:35;;;;;;;4.80;3.40;;;24.20;99.90;;;;;;5067578;28;20266;-78
2023/06/29 06:13:04;;;;;;;4.67;3.60;;;24.30;99.90;;;;;;5071745;28;20223;-78
2023/06/29 06:15:31;;;;;;;5.80;5.07;;;24.30;99.90;;;;;;5063350;28;20252;-77
2023/06/29 06:17:59;;;;;;;5.73;5.13;;;24.80;99.90;;;;;;5061075;28;20678;-79
2023/06/29 06:20:26;;;;;;;5.57;5.03;;;24.80;99.90;;;;;;5068119;28;20194;-78
2023/06/29 06:22:52;;;;;;;5.00;4.60;;;24.90;99.90;;;;;;5068948;28;20249;-78
2023/06/29 06:25:20;;;;;;;6.17;3.40;;;25.00;99.90;;;;;;5062604;28;20225;-79
2023/06/29 06:27:46;;;;;;;7.80;4.00;;;25.20;99.90;;;;;;5065128;28;20651;-79
2023/06/29 06:30:13;;;;;;;4.60;4.10;;;25.00;99.90;;;;;;5069535;28;20211;-79
2023/06/29 06:32:41;;;;;;;6.23;4.07;;;24.90;99.90;;;;;;5064623;28;20226;-80
2023/06/29 06:35:09;;;;;;;7.03;5.43;;;25.40;99.90;;;;;;5066085;28;20266;-79
2023/06/29 06:37:37;;;;;;;5.40;4.93;;;25.50;99.90;;;;;;5067578;28;20195;-79
2023/06/29 06:40:07;;;;;;;6.00;4.77;;;26.00;99.90;;;;;;5064854;28;20263;-80
2023/06/29 06:42:34;;;;;;;6.47;5.23;;;26.30;99.90;;;;;;5068228;28;20218;-79
2023/06/29 06:45:04;;;;;;;4.87;4.47;;;26.30;99.90;;;;;;5053675;28;20736;-80
2023/06/29 06:47:31;;;;;;;11.57;5.77;;;26.50;99.90;;;;;;5061995;28;20643;-79
2023/06/29 06:49:59;;;;;;;14.67;5.87;;;26.50;99.90;;;;;;5067297;28;20455;-79
2023/06/29 06:52:28;;;;;;;5.63;5.07;;;26.50;99.90;;;;;;5065619;28;20701;-79
2023/06/29 06:54:56;;;;;;;5.43;4.93;;;26.80;99.90;;;;;;5061740;28;20222;-80
2023/06/29 06:57:23;;;;;;;6.47;4.77;;;26.90;99.90;;;;;;5059131;28;20282;-79
2023/06/29 06:59:50;;;;;;;5.70;4.90;;;27.00;99.90;;;;;;5066167;28;20217;-79
2023/06/29 07:02:17;;;;;;;6.47;4.87;;;27.30;99.90;;;;;;5063628;28;20272;-80
2023/06/29 07:04:44;;;;;;;5.27;4.83;;;27.40;99.90;;;;;;5065469;28;20581;-79
2023/06/29 07:07:11;;;;;;;6.80;5.73;;;27.40;99.90;;;;;;5068872;28;20249;-80
2023/06/29 07:09:40;;;;;;;5.30;4.80;;;27.70;99.90;;;;;;5056741;28;20200;-79
2023/06/29 07:12:09;;;;;;;6.47;5.87;;;27.60;99.10;;;;;;5054275;28;20226;-79
2023/06/29 07:14:36;;;;;;;5.80;5.30;;;27.30;99.90;;;;;;5065952;28;20206;-79
2023/06/29 07:17:03;;;;;;;6.47;5.87;;;27.40;99.70;;;;;;5055978;28;20395;-79
2023/06/29 07:19:30;;;;;;;6.93;6.23;;;27.20;99.20;;;;;;5050541;28;20199;-80
2023/06/29 07:21:56;;;;;;;5.33;4.83;;;27.10;98.60;;;;;;5063119;28;20211;-79
2023/06/29 07:24:23;;;;;;;5.27;4.77;;;26.80;99.40;;;;;;5070619;28;20684;-79
2023/06/29 07:26:51;;;;;;;5.90;5.47;;;26.90;99.90;;;;;;5065549;28;20215;-82
2023/06/29 07:29:18;;;;;;;5.60;5.00;;;27.00;99.90;;;;;;5055844;28;20202;-79
2023/06/29 07:31:45;;;;;;;6.43;5.40;;;27.60;99.30;;;;;;5055145;28;20283;-78
2023/06/29 07:34:12;;;;;;;6.43;5.80;;;27.90;99.20;;;;;;5070422;28;20665;-78
2023/06/29 07:36:40;;;;;;;6.10;5.60;;;28.50;98.50;;;;;;5067869;28;20222;-79
2023/06/29 07:39:07;;;;;;;6.00;5.50;;;28.70;98.00;;;;;;5061701;28;20194;-77
2023/06/29 07:41:34;;;;;;;7.47;6.33;;;29.20;97.50;;;;;;5062994;28;20643;-79
2023/06/29 07:44:02;;;;;;;6.33;5.53;;;29.00;97.30;;;;;;5058518;28;20192;-80
2023/06/29 07:46:31;;;;;;;7.73;6.20;;;28.60;97.00;;;;;;5067501;28;20211;-79
2023/06/29 07:48:58;;;;;;;5.83;5.33;;;28.20;97.30;;;;;;5064374;28;20196;-79
2023/06/29 07:51:31;;;;;;;5.67;5.17;;;28.10;97.90;;;;;;5071292;28;20218;-80
2023/06/29 07:54:00;;;;;;;6.93;5.30;;;28.10;97.60;;;;;;5065929;28;20561;-79
2023/06/29 07:56:27;;;;;;;6.10;5.50;;;27.90;97.80;;;;;;5066167;28;20194;-78
2023/06/29 07:58:54;;;;;;;5.43;5.00;;;27.70;97.50;;;;;;5065209;28;20203;-79
2023/06/29 08:01:22;;;;;;;5.93;4.50;;;27.70;98.00;;;;;;5065847;28;20199;-79
2023/06/29 08:03:49;;;;;;;5.53;4.37;;;27.40;98.40;;;;;;5064097;28;20226;-79
2023/06/29 08:06:16;;;;;;;5.30;4.80;;;27.40;98.40;;;;;;5063414;28;20220;-79
2023/06/29 08:08:43;;;;;;;5.30;4.67;;;27.50;98.20;;;;;;5064192;28;20681;-78
2023/06/29 08:11:12;;;;;;;5.07;4.67;;;27.60;98.80;;;;;;5063589;28;20270;-79
2023/06/29 08:13:39;;;;;;;5.43;4.93;;;27.90;98.90;;;;;;5060708;28;20220;-79
2023/06/29 08:16:06;;;;;;;6.23;4.43;;;28.00;98.40;;;;;;5068695;28;20673;-79
2023/06/29 08:18:34;;;;;;;4.93;4.40;;;28.20;97.40;;;;;;5065341;28;20244;-79
2023/06/29 08:21:01;;;;;;;5.50;4.93;;;28.60;97.20;;;;;;5062697;28;20209;-79
2023/06/29 08:23:28;;;;;;;6.03;4.50;;;28.40;98.00;;;;;;5061456;28;20218;-78
2023/06/29 08:25:54;;;;;;;5.40;4.90;;;28.40;98.20;;;;;;5061880;28;20254;-79
2023/06/29 08:28:21;;;;;;;5.37;4.87;;;28.40;97.60;;;;;;5066520;28;20202;-80
2023/06/29 08:30:48;;;;;;;4.83;4.43;;;28.30;97.60;;;;;;5067671;28;20248;-80
2023/06/29 08:33:15;;;;;;;5.00;4.50;;;29.00;97.90;;;;;;5067714;28;20225;-78
2023/06/29 08:35:43;;;;;;;4.77;4.37;;;29.40;96.90;;;;;;5053977;28;20257;-79
2023/06/29 08:38:10;;;;;;;6.30;5.17;;;29.80;96.70;;;;;;5056421;28;20266;-79
2023/06/29 08:40:39;;;;;;;5.13;4.70;;;30.10;95.90;;;;;;5062473;28;20238;-79
2023/06/29 08:43:08;;;;;;;5.03;4.63;;;30.40;94.90;;;;;;5066445;28;20218;-80
2023/06/29 08:45:35;;;;;;;6.93;4.90;;;29.60;95.60;;;;;;5056315;28;20226;-79
2023/06/29 08:48:03;;;;;;;5.27;4.77;;;29.40;96.10;;;;;;5066203;28;20203;-80
2023/06/29 08:50:34;;;;;;;5.30;4.80;;;29.20;96.60;;;;;;5063312;28;20202;-79
2023/06/29 08:53:04;;;;;;;5.43;4.93;;;29.10;95.70;;;;;;5065585;28;20234;-79
2023/06/29 08:55:31;;;;;;;5.13;4.70;;;29.70;95.40;;;;;;5045444;28;20227;-77
2023/06/29 08:57:58;;;;;;;6.57;4.80;;;30.20;94.10;;;;;;5045580;28;20203;-79
2023/06/29 09:00:26;;;;;;;5.63;5.13;;;30.60;94.20;;;;;;5063499;28;20210;-80
2023/06/29 09:02:54;;;;;;;5.43;4.60;;;30.80;94.60;;;;;;5065188;28;20220;-79
2023/06/29 09:05:22;;;;;;;5.00;4.50;;;30.50;93.90;;;;;;5070073;28;20734;-78
2023/06/29 09:07:50;;;;;;;5.03;4.47;;;30.30;93.60;;;;;;5047289;28;20305;-77
2023/06/29 09:10:18;;;;;;;6.43;4.67;;;30.00;93.80;;;;;;5057362;28;20256;-78
2023/06/29 09:12:45;;;;;;;4.70;4.30;;;30.10;94.10;;;;;;5065810;28;20226;-80
2023/06/29 09:15:13;;;;;;;6.87;4.47;;;30.20;93.50;;;;;;5064238;28;20196;-78
2023/06/29 09:17:45;;;;;;;5.20;4.40;;;30.60;92.70;;;;;;5055823;28;20202;-79
2023/06/29 09:20:18;;;;;;;6.60;4.60;;;30.70;91.20;;;;;;5062552;28;20199;-78
2023/06/29 09:22:51;;;;;;;5.00;4.50;;;30.50;92.20;;;;;;5070956;28;20221;-79
2023/06/29 09:25:21;;;;;;;4.63;4.27;;;30.70;91.50;;;;;;5074420;28;20191;-79
2023/06/29 09:27:48;;;;;;;4.83;4.43;;;30.60;91.30;;;;;;5061643;28;20800;-77
2023/06/29 09:30:18;;;;;;;6.27;4.70;;;30.90;90.80;;;;;;5063240;28;20226;-79
2023/06/29 09:32:45;;;;;;;4.63;4.20;;;31.20;90.20;;;;;;5060484;28;20755;-79
2023/06/29 09:35:12;;;;;;;4.70;4.30;;;31.50;90.30;;;;;;5067666;28;20194;-78
2023/06/29 09:37:40;;;;;;;6.03;4.53;;;31.80;88.50;;;;;;5065572;28;20235;-79
2023/06/29 09:40:09;;;;;;;4.43;4.07;;;32.20;90.10;;;;;;5047992;28;20207;-79
2023/06/29 09:42:39;;;;;;;6.85;5.50;;;32.40;87.20;;;;;;5051528;28;20214;-80
2023/06/29 09:45:11;;;;;;;12.18;7.43;;;32.20;89.10;;;;;;5044732;28;20242;-78
2023/06/29 09:47:41;;;;;;;6.57;5.65;;;32.30;89.10;;;;;;5050482;28;20225;-80
2023/06/29 09:50:18;;;;;;;6.28;5.68;;;32.40;87.40;;;;;;5060028;28;20195;-78
2023/06/29 09:52:46;;;;;;;6.22;5.63;;;32.30;86.80;;;;;;5062203;28;20226;-80
2023/06/29 09:55:12;;;;;;;5.70;5.30;;;32.30;85.00;;;;;;5064761;28;20194;-80
2023/06/29 09:57:43;;;;;;;6.05;5.45;;;32.30;87.30;;;;;;5068310;28;20249;-80
2023/06/29 10:00:12;;;;;;;6.00;5.47;;;32.20;85.20;;;;;;5062715;28;20215;-78
2023/06/29 10:02:43;;;;;;;6.38;5.78;;;32.00;85.10;;;;;;5068160;28;20249;-78
2023/06/29 10:05:10;;;;;;;5.53;4.57;;;32.00;87.60;;;;;;5070811;28;20206;-78
2023/06/29 10:07:38;;;;;;;5.80;5.30;;;32.10;87.10;;;;;;5061704;28;20219;-78
2023/06/29 10:10:10;;;;;;;7.18;5.55;;;32.20;87.10;;;;;;5051713;28;20203;-78
2023/06/29 10:12:36;;;;;;;5.93;5.35;;;32.10;85.90;;;;;;5051359;28;20249;-78
2023/06/29 10:15:09;;;;;;;6.85;5.43;;;32.10;86.10;;;;;;5064271;28;20199;-78
2023/06/29 10:17:45;;;;;;;6.57;6.00;;;31.90;85.60;;;;;;5053304;28;20197;-79
2023/06/29 10:20:14;;;;;;;6.45;5.85;;;31.70;85.80;;;;;;5051074;28;20622;-79
2023/06/29 10:22:42;;;;;;;6.20;5.57;;;31.60;87.50;;;;;;5062354;28;20343;-78
2023/06/29 10:25:13;;;;;;;6.18;5.57;;;31.60;86.80;;;;;;5068854;28;20191;-79
2023/06/29 10:27:40;;;;;;;6.18;5.68;;;31.20;87.00;;;;;;5053105;28;20223;-79
2023/06/29 10:30:10;;;;;;;6.45;5.85;;;31.00;86.20;;;;;;5056505;28;20187;-78
2023/06/29 10:32:37;;;;;;;5.93;5.38;;;31.00;88.90;;;;;;5066069;28;20216;-78
2023/06/29 10:35:05;;;;;;;5.93;5.43;;;31.20;87.70;;;;;;5062844;28;20222;-78
2023/06/29 10:37:34;;;;;;;5.90;5.47;;;31.30;89.50;;;;;;5061626;28;20835;-77
2023/06/29 10:40:01;;;;;;;5.93;5.33;;;30.80;86.30;;;;;;5065073;28;20215;-78
2023/06/29 10:42:50;;;;;;;6.37;5.77;;;30.30;89.40;;;;;;5069572;28;20249;-76
2023/06/29 10:45:39;;;;;;;7.63;5.93;;;30.30;88.20;;;;;;5068798;28;20259;-77
2023/06/29 10:48:09;;;;;;;6.10;5.60;;;30.10;87.70;;;;;;5056271;28;20702;-77
2023/06/29 10:50:39;;;;;;;6.53;5.73;;;30.30;89.80;;;;;;5051077;28;20200;-77
2023/06/29 10:53:08;;;;;;;5.83;5.33;;;30.30;87.70;;;;;;5065374;28;20222;-78
2023/06/29 10:55:44;;;;;;;6.17;5.67;;;30.40;88.00;;;;;;5067237;28;20681;-77
2023/06/29 10:58:16;;;;;;;5.40;4.90;;;30.10;88.70;;;;;;5063974;28;20665;-77
2023/06/29 11:00:45;;;;;;;5.63;5.07;;;29.60;88.80;;;;;;5059767;28;20202;-77
2023/06/29 11:03:12;;;;;;;5.93;5.43;;;29.30;90.80;;;;;;5062028;28;20224;-77
2023/06/29 11:05:39;;;;;;;6.83;5.07;;;29.50;91.00;;;;;;5065967;28;20222;-77
2023/06/29 11:08:07;;;;;;;3.57;3.20;;;29.70;90.40;;;;;;5064221;28;20219;-77
2023/06/29 11:10:35;;;;;;;3.37;2.93;;;30.00;91.00;;;;;;5054217;28;20194;-77
2023/06/29 11:13:07;;;;;;;4.03;3.43;;;30.20;90.90;;;;;;5064499;28;20222;-77
2023/06/29 11:15:34;;;;;;;4.73;3.10;;;30.20;90.40;;;;;;5057119;28;20195;-77
2023/06/29 11:18:04;;;;;;;6.50;3.10;;;30.10;90.50;;;;;;5057035;28;20190;-77
2023/06/29 11:20:33;;;;;;;5.93;3.30;;;30.10;90.60;;;;;;5054526;28;20669;-77
2023/06/29 11:23:00;;;;;;;5.80;5.30;;;30.00;89.20;;;;;;5049295;28;20250;-77
2023/06/29 11:25:28;;;;;;;5.83;5.33;;;30.00;90.00;;;;;;5055791;28;20207;-75
2023/06/29 11:27:55;;;;;;;7.93;5.93;;;30.10;90.60;;;;;;5048732;28;20244;-75
2023/06/29 11:30:22;;;;;;;5.63;5.13;;;30.20;87.60;;;;;;5060677;28;20249;-75
2023/06/29 11:32:50;;;;;;;8.20;5.77;;;30.20;90.50;;;;;;5068260;28;20221;-75
2023/06/29 11:35:21;;;;;;;5.77;5.27;;;30.20;90.40;;;;;;5065684;28;20282;-75
2023/06/29 11:37:48;;;;;;;5.30;4.90;;;30.40;90.70;;;;;;5059883;28;20191;-75
2023/06/29 11:40:20;;;;;;;6.13;5.60;;;30.60;90.10;;;;;;5061925;28;20205;-75
2023/06/29 11:42:48;;;;;;;5.60;5.00;;;30.70;90.40;;;;;;5056157;28;20642;-77
2023/06/29 11:45:16;;;;;;;5.33;4.83;;;30.60;89.00;;;;;;5060726;28;20246;-76
2023/06/29 11:47:46;;;;;;;4.87;4.33;;;30.50;90.10;;;;;;5065175;28;20301;-77
2023/06/29 11:50:13;;;;;;;4.83;4.40;;;30.50;89.40;;;;;;5063826;28;20223;-77
2023/06/29 11:52:44;;;;;;;6.13;5.60;;;30.90;88.70;;;;;;5063704;28;20790;-76
2023/06/29 11:55:13;;;;;;;6.10;5.50;;;31.40;89.60;;;;;;5066123;28;20677;-82
2023/06/29 11:57:43;;;;;;;7.53;6.50;;;31.90;88.90;;;;;;5060179;28;20195;-79
2023/06/29 12:00:33;;;;;;;7.28;6.57;;;31.90;86.60;;;;;;5063422;28;20202;-80
2023/06/29 12:03:07;;;;;;;7.07;6.37;;;31.80;85.40;;;;;;5060422;28;20620;-78
2023/06/29 12:05:34;;;;;;;7.10;6.40;;;31.40;87.40;;;;;;5067133;28;20209;-78
2023/06/29 12:08:08;;;;;;;6.20;5.37;;;31.10;88.30;;;;;;5067032;28;20792;-77
2023/06/29 12:10:36;;;;;;;5.80;5.20;;;30.80;89.50;;;;;;5065068;28;20585;-78
2023/06/29 12:13:04;;;;;;;6.70;5.90;;;30.30;89.30;;;;;;5065778;28;20317;-77
2023/06/29 12:15:33;;;;;;;6.43;5.90;;;30.10;90.10;;;;;;5066694;28;20255;-76
2023/06/29 12:18:07;;;;;;;6.23;5.63;;;29.80;90.80;;;;;;5057408;28;20190;-77
2023/06/29 12:20:38;;;;;;;5.73;5.07;;;29.60;91.80;;;;;;5055176;28;20207;-77
2023/06/29 12:23:07;;;;;;;6.90;5.57;;;29.50;91.80;;;;;;5066105;28;20218;-77
2023/06/29 12:25:43;;;;;;;6.37;5.77;;;29.30;91.20;;;;;;5065971;28;20202;-79
2023/06/29 12:28:10;;;;;;;6.40;5.73;;;29.20;91.40;;;;;;5068425;28;20685;-79
2023/06/29 12:30:36;;;;;;;7.80;6.77;;;29.10;91.50;;;;;;5060607;28;20202;-78
2023/06/29 12:33:03;;;;;;;5.40;4.60;;;29.00;92.10;;;;;;5062387;28;20571;-78
2023/06/29 12:35:30;;;;;;;6.03;5.53;;;29.10;91.60;;;;;;5051557;28;20215;-78
2023/06/29 12:37:57;;;;;;;8.10;5.73;;;29.40;91.50;;;;;;5060748;28;20207;-80
2023/06/29 12:40:26;;;;;;;7.00;6.10;;;29.80;90.70;;;;;;5070588;28;20558;-78
2023/06/29 12:42:52;;;;;;;5.17;4.53;;;30.20;90.10;;;;;;5064207;28;20210;-79
2023/06/29 12:45:19;;;;;;;6.47;5.40;;;30.60;90.40;;;;;;5060313;28;20882;-77
2023/06/29 12:47:46;;;;;;;6.03;5.43;;;30.80;90.20;;;;;;5056460;28;20214;-82
2023/06/29 12:50:13;;;;;;;6.17;5.40;;;31.00;89.40;;;;;;5062206;28;20222;-78